createdAt,value
2023-02-02T00:00:12.031Z,1.71
2023-02-02T00:01:13.934Z,1.63
2023-02-02T00:02:15.737Z,1.36
2023-02-02T00:03:17.787Z,1.82
2023-02-02T00:04:25.293Z,1.83
2023-02-02T00:05:27.033Z,1.72
2023-02-02T00:06:30.641Z,1.70
2023-02-02T00:07:32.368Z,0.75
2023-02-02T00:08:34.235Z,1.92
2023-02-02T00:09:36.087Z,1.56
2023-02-02T00:10:37.796Z,1.74
2023-02-02T00:11:39.656Z,1.56
2023-02-02T00:12:41.376Z,1.46
2023-02-02T00:13:43.369Z,0.65
2023-02-02T00:14:45.137Z,1.69
2023-02-02T00:15:46.848Z,1.09
2023-02-02T00:16:50.899Z,1.66
2023-02-02T00:17:52.711Z,1.80
2023-02-02T00:18:55.779Z,1.80
2023-02-02T00:19:57.518Z,1.82
2023-02-02T00:20:59.229Z,1.33
2023-02-02T00:22:00.867Z,1.73
2023-02-02T00:23:03.217Z,1.25
2023-02-02T00:24:07.396Z,1.69
2023-02-02T00:25:09.765Z,1.14
2023-02-02T00:26:11.513Z,1.68
2023-02-02T00:27:13.181Z,1.64
2023-02-02T00:28:15.598Z,1.60
2023-02-02T00:29:20.136Z,1.23
2023-02-02T00:30:21.931Z,1.41
2023-02-02T00:31:23.742Z,1.38
2023-02-02T00:32:25.450Z,0.46
2023-02-02T00:33:27.189Z,0.99
2023-02-02T00:34:28.911Z,1.27
2023-02-02T00:35:30.755Z,0.94
2023-02-02T00:36:32.558Z,1.46
2023-02-02T00:37:34.431Z,1.52
2023-02-02T00:38:36.071Z,1.48
2023-02-02T00:39:37.825Z,1.40
2023-02-02T00:40:39.644Z,1.55
2023-02-02T00:41:41.441Z,1.62
2023-02-02T00:42:43.111Z,1.58
2023-02-02T00:43:44.857Z,1.72
2023-02-02T00:44:46.620Z,1.38
2023-02-02T00:45:49.863Z,0.95
2023-02-02T00:46:51.695Z,1.57
2023-02-02T00:47:53.436Z,1.72
2023-02-02T00:48:55.092Z,1.60
2023-02-02T00:49:56.786Z,1.62
2023-02-02T00:50:58.528Z,1.71
2023-02-02T00:52:00.382Z,1.20
2023-02-02T00:53:02.383Z,1.63
2023-02-02T00:54:04.485Z,1.50
2023-02-02T00:55:07.257Z,1.63
2023-02-02T00:56:09.408Z,1.66
2023-02-02T00:57:14.558Z,1.59
2023-02-02T00:58:16.201Z,1.55
2023-02-02T00:59:18.163Z,1.28
2023-02-02T01:00:22.843Z,1.41
2023-02-02T01:01:24.637Z,1.42
2023-02-02T01:02:26.477Z,1.48
2023-02-02T01:03:28.267Z,1.32
2023-02-02T01:04:30.022Z,1.40
2023-02-02T01:05:32.907Z,1.34
2023-02-02T01:06:35.017Z,0.83
2023-02-02T01:07:36.792Z,0.22
2023-02-02T01:08:39.006Z,1.26
2023-02-02T01:09:40.717Z,0.99
2023-02-02T01:10:42.459Z,1.28
2023-02-02T01:11:44.205Z,0.89
2023-02-02T01:12:45.917Z,0.52
2023-02-02T01:13:47.809Z,1.21
2023-02-02T01:14:49.511Z,1.26
2023-02-02T01:15:56.311Z,0.15
2023-02-02T01:16:58.094Z,1.23
2023-02-02T01:17:59.910Z,1.19
2023-02-02T01:19:01.992Z,1.07
2023-02-02T01:20:05.076Z,1.09
2023-02-02T01:21:10.827Z,1.07
2023-02-02T01:22:12.710Z,1.23
2023-02-02T01:23:14.471Z,0.27
2023-02-02T01:24:16.178Z,0.87
2023-02-02T01:25:18.021Z,1.18
2023-02-02T01:26:19.835Z,1.03
2023-02-02T01:27:21.692Z,1.25
2023-02-02T01:28:24.278Z,1.29
2023-02-02T01:29:26.043Z,1.24
2023-02-02T01:30:27.782Z,1.00
2023-02-02T01:31:29.520Z,1.10
2023-02-02T01:32:31.265Z,1.33
2023-02-02T01:33:33.212Z,0.96
2023-02-02T01:34:35.055Z,1.28
2023-02-02T01:35:36.869Z,1.33
2023-02-02T01:36:38.619Z,-0.08
2023-02-02T01:37:40.333Z,1.23
2023-02-02T01:38:42.463Z,1.43
2023-02-02T01:39:44.255Z,1.19
2023-02-02T01:40:57.246Z,1.30
2023-02-02T01:41:59.035Z,1.08
2023-02-02T01:43:00.791Z,1.11
2023-02-02T01:44:05.381Z,0.82
2023-02-02T01:45:13.187Z,1.21
2023-02-02T01:46:20.948Z,1.06
2023-02-02T01:47:26.939Z,0.74
2023-02-02T01:48:33.395Z,0.85
2023-02-02T01:49:35.147Z,0.77
2023-02-02T01:50:36.891Z,0.98
2023-02-02T01:51:50.543Z,1.01
2023-02-02T01:52:55.456Z,0.88
2023-02-02T01:53:59.716Z,0.88
2023-02-02T01:55:05.807Z,0.79
2023-02-02T01:56:10.319Z,0.63
2023-02-02T01:57:23.846Z,0.61
2023-02-02T01:58:38.093Z,-0.46
2023-02-02T01:59:41.667Z,0.36
2023-02-02T02:00:46.717Z,0.12
2023-02-02T02:01:49.960Z,0.55
2023-02-02T02:02:55.779Z,-0.71
2023-02-02T02:03:57.666Z,0.63
2023-02-02T02:05:03.052Z,0.60
2023-02-02T02:06:08.760Z,0.62
2023-02-02T02:07:11.490Z,0.51
2023-02-02T02:08:24.421Z,0.48
2023-02-02T02:09:26.117Z,0.35
2023-02-02T02:10:27.839Z,0.44
2023-02-02T02:11:31.062Z,-0.26
2023-02-02T02:12:32.702Z,-0.24
2023-02-02T02:13:38.875Z,-0.34
2023-02-02T02:14:41.364Z,0.34
2023-02-02T02:16:18.979Z,0.46
2023-02-02T02:17:40.451Z,0.51
2023-02-02T02:19:01.802Z,-0.26
2023-02-02T02:20:30.964Z,0.53
2023-02-02T02:21:52.706Z,0.37
2023-02-02T02:23:31.621Z,-0.48
2023-02-02T02:24:54.953Z,0.08
2023-02-02T02:26:11.528Z,-0.23
2023-02-02T02:27:28.381Z,-0.75
2023-02-02T02:29:03.111Z,0.21
2023-02-02T02:30:19.997Z,-0.78
2023-02-02T02:31:49.144Z,0.25
2023-02-02T02:32:51.092Z,0.10
2023-02-02T02:34:13.761Z,0.12
2023-02-02T02:35:30.298Z,0.19
2023-02-02T02:36:45.652Z,0.27
2023-02-02T02:37:58.220Z,0.30
2023-02-02T02:39:15.201Z,0.19
2023-02-02T02:40:35.001Z,0.15
2023-02-02T02:41:43.369Z,0.01
2023-02-02T02:42:50.951Z,0.14
2023-02-02T02:44:02.333Z,0.08
2023-02-02T02:45:06.137Z,0.25
2023-02-02T02:46:09.671Z,0.17
2023-02-02T02:47:11.712Z,-0.22
2023-02-02T02:48:13.652Z,0.18
2023-02-02T02:49:15.980Z,0.23
2023-02-02T02:50:18.168Z,0.25
2023-02-02T02:51:46.163Z,0.28
2023-02-02T02:52:53.303Z,-0.17
2023-02-02T02:53:56.034Z,0.17
2023-02-02T02:55:00.184Z,0.19
2023-02-02T02:56:18.785Z,0.15
2023-02-02T02:57:32.668Z,-0.87
2023-02-02T02:59:09.832Z,-0.06
2023-02-02T03:00:52.208Z,-0.18
2023-02-02T03:02:29.773Z,-0.27
2023-02-02T03:03:40.177Z,-0.03
2023-02-02T03:04:58.140Z,-0.05
2023-02-02T03:06:29.045Z,-0.15
2023-02-02T03:07:42.877Z,-0.58
2023-02-02T03:08:50.631Z,-0.27
2023-02-02T03:09:55.046Z,-0.61
2023-02-02T03:10:58.983Z,-0.26
2023-02-02T03:12:01.569Z,-0.27
2023-02-02T03:13:08.207Z,-0.26
2023-02-02T03:14:10.152Z,-0.43
2023-02-02T03:15:12.607Z,-0.39
2023-02-02T03:16:16.089Z,-0.35
2023-02-02T03:17:17.772Z,-0.36
2023-02-02T03:18:22.193Z,-0.60
2023-02-02T03:19:24.145Z,-0.55
2023-02-02T03:20:25.830Z,-0.93
2023-02-02T03:21:27.488Z,-0.60
2023-02-02T03:22:29.196Z,-1.19
2023-02-02T03:23:30.928Z,-0.52
2023-02-02T03:24:32.639Z,-0.48
2023-02-02T03:25:34.410Z,-0.54
2023-02-02T03:26:37.218Z,-0.64
2023-02-02T03:27:40.103Z,-1.29
2023-02-02T03:28:42.160Z,-0.71
2023-02-02T03:29:43.850Z,-0.92
2023-02-02T03:30:47.048Z,-1.98
2023-02-02T03:31:49.131Z,-1.41
2023-02-02T03:32:52.248Z,-0.48
2023-02-02T03:33:54.752Z,-1.98
2023-02-02T03:34:56.534Z,-0.44
2023-02-02T03:35:58.171Z,-1.09
2023-02-02T03:36:59.855Z,-1.88
2023-02-02T03:38:01.741Z,-0.49
2023-02-02T03:39:03.710Z,-0.47
2023-02-02T03:40:06.912Z,-0.47
2023-02-02T03:41:08.640Z,-0.49
2023-02-02T03:42:10.333Z,-0.48
2023-02-02T03:43:12.103Z,-0.71
2023-02-02T03:44:13.913Z,-0.65
2023-02-02T03:45:15.898Z,-0.50
2023-02-02T03:46:17.626Z,-0.72
2023-02-02T03:47:19.298Z,-0.56
2023-02-02T03:48:21.158Z,-0.69
2023-02-02T03:49:23.126Z,-0.74
2023-02-02T03:50:24.958Z,-0.68
2023-02-02T03:51:26.748Z,-0.80
2023-02-02T03:52:28.461Z,-1.61
2023-02-02T03:53:30.152Z,-0.67
2023-02-02T03:54:31.848Z,-0.83
2023-02-02T03:55:33.575Z,-1.52
2023-02-02T03:56:35.459Z,-0.45
2023-02-02T03:57:37.238Z,-0.44
2023-02-02T03:58:38.936Z,-0.46
2023-02-02T03:59:40.603Z,-0.86
2023-02-02T04:00:42.505Z,-0.51
2023-02-02T04:01:44.364Z,-0.62
2023-02-02T04:02:46.101Z,-0.54
2023-02-02T04:03:50.398Z,-0.57
2023-02-02T04:04:52.115Z,-0.85
2023-02-02T04:05:53.774Z,-0.84
2023-02-02T04:06:55.531Z,-1.00
2023-02-02T04:07:57.326Z,-1.07
2023-02-02T04:08:59.030Z,-0.84
2023-02-02T04:10:00.748Z,-0.86
2023-02-02T04:11:02.700Z,-1.11
2023-02-02T04:12:04.650Z,-0.79
2023-02-02T04:13:06.395Z,-1.71
2023-02-02T04:14:08.058Z,-0.75
2023-02-02T04:15:09.970Z,-1.08
2023-02-02T04:16:13.053Z,-0.80
2023-02-02T04:17:15.012Z,-1.06
2023-02-02T04:18:16.718Z,-0.77
2023-02-02T04:19:18.481Z,-1.13
2023-02-02T04:20:20.342Z,-0.92
2023-02-02T04:21:22.417Z,-0.94
2023-02-02T04:22:25.575Z,-0.91
2023-02-02T04:23:29.089Z,-0.93
2023-02-02T04:24:30.870Z,-1.02
2023-02-02T04:25:32.636Z,-1.08
2023-02-02T04:26:34.457Z,-1.03
2023-02-02T04:27:36.215Z,-0.95
2023-02-02T04:28:37.862Z,-1.11
2023-02-02T04:29:39.596Z,-1.29
2023-02-02T04:30:41.445Z,-1.58
2023-02-02T04:31:43.367Z,-1.25
2023-02-02T04:32:45.091Z,-0.99
2023-02-02T04:33:46.818Z,-1.30
2023-02-02T04:34:48.480Z,-1.16
2023-02-02T04:35:50.186Z,-1.30
2023-02-02T04:36:51.984Z,-1.12
2023-02-02T04:37:55.361Z,-0.97
2023-02-02T04:38:57.107Z,-0.95
2023-02-02T04:39:58.929Z,-1.00
2023-02-02T04:41:12.515Z,-2.01
2023-02-02T04:42:14.287Z,-1.02
2023-02-02T04:43:16.617Z,-1.30
2023-02-02T04:44:18.315Z,-1.03
2023-02-02T04:45:20.062Z,-0.89
2023-02-02T04:46:21.847Z,-0.97
2023-02-02T04:47:23.602Z,-0.98
2023-02-02T04:48:25.315Z,-0.64
2023-02-02T04:49:27.093Z,-1.37
2023-02-02T04:50:29.224Z,-1.04
2023-02-02T04:51:30.879Z,-3.86
2023-02-02T04:52:32.685Z,-1.11
2023-02-02T04:53:34.580Z,-1.34
2023-02-02T04:54:36.386Z,-1.56
2023-02-02T04:55:38.534Z,-1.29
2023-02-02T04:56:40.259Z,-1.29
2023-02-02T04:57:42.796Z,-2.33
2023-02-02T04:58:45.996Z,-1.58
2023-02-02T04:59:47.779Z,-1.31
2023-02-02T05:00:49.515Z,-1.47
2023-02-02T05:01:51.293Z,-2.06
2023-02-02T05:02:52.983Z,-1.21
2023-02-02T05:03:54.953Z,-1.38
2023-02-02T05:04:56.703Z,-1.42
2023-02-02T05:06:02.898Z,-1.28
2023-02-02T05:07:04.812Z,-2.33
2023-02-02T05:08:08.735Z,-1.53
2023-02-02T05:09:11.327Z,-1.38
2023-02-02T05:10:13.192Z,-1.75
2023-02-02T05:11:20.810Z,-1.90
2023-02-02T05:12:22.548Z,-1.78
2023-02-02T05:13:24.364Z,-2.15
2023-02-02T05:14:26.076Z,-1.90
2023-02-02T05:15:27.860Z,-1.48
2023-02-02T05:16:29.579Z,-1.58
2023-02-02T05:17:32.191Z,-1.74
2023-02-02T05:18:33.951Z,-1.63
2023-02-02T05:19:35.642Z,-1.86
2023-02-02T05:20:37.600Z,-1.51
2023-02-02T05:21:39.383Z,-1.50
2023-02-02T05:22:41.173Z,-1.69
2023-02-02T05:23:42.970Z,-1.70
2023-02-02T05:24:44.866Z,-1.90
2023-02-02T05:25:52.368Z,-1.63
2023-02-02T05:26:54.441Z,-1.62
2023-02-02T05:27:56.134Z,-1.74
2023-02-02T05:28:57.826Z,-1.50
2023-02-02T05:29:59.499Z,-1.66
2023-02-02T05:31:06.201Z,-1.65
2023-02-02T05:32:08.052Z,-1.92
2023-02-02T05:33:09.778Z,-1.60
2023-02-02T05:34:11.615Z,-1.92
2023-02-02T05:35:13.491Z,-1.53
2023-02-02T05:36:15.275Z,-1.56
2023-02-02T05:37:17.130Z,-1.61
2023-02-02T05:38:18.849Z,-1.59
2023-02-02T05:39:20.687Z,-1.65
2023-02-02T05:40:22.532Z,-2.26
2023-02-02T05:41:24.482Z,-1.77
2023-02-02T05:42:26.242Z,-2.13
2023-02-02T05:43:29.381Z,-1.77
2023-02-02T05:44:31.275Z,-1.36
2023-02-02T05:45:33.099Z,-2.65
2023-02-02T05:46:35.015Z,-2.68
2023-02-02T05:47:36.740Z,-1.96
2023-02-02T05:48:38.474Z,-1.38
2023-02-02T05:49:40.168Z,-1.45
2023-02-02T05:50:46.919Z,-1.77
2023-02-02T05:51:51.720Z,-1.45
2023-02-02T05:52:53.511Z,-2.08
2023-02-02T05:53:55.399Z,-1.52
2023-02-02T05:54:57.335Z,-1.02
2023-02-02T05:55:59.534Z,-0.99
2023-02-02T05:57:01.588Z,-1.06
2023-02-02T05:58:03.434Z,-1.07
2023-02-02T05:59:05.809Z,-0.39
2023-02-02T06:00:11.543Z,-1.18
2023-02-02T06:01:14.231Z,-0.57
2023-02-02T06:02:16.447Z,-0.45
2023-02-02T06:03:18.311Z,-0.38
2023-02-02T06:04:20.103Z,-0.51
2023-02-02T06:05:23.155Z,-0.75
2023-02-02T06:06:25.197Z,-0.57
2023-02-02T06:07:27.021Z,-0.76
2023-02-02T06:08:28.791Z,-0.50
2023-02-02T06:09:31.072Z,-0.70
2023-02-02T06:10:32.733Z,-0.50
2023-02-02T06:11:35.289Z,-1.33
2023-02-02T06:12:37.650Z,0.17
2023-02-02T06:13:39.552Z,0.64
2023-02-02T06:14:41.821Z,0.25
2023-02-02T06:15:43.929Z,-0.08
2023-02-02T06:16:45.790Z,0.05
2023-02-02T06:17:48.029Z,-0.01
2023-02-02T06:18:50.279Z,-0.24
2023-02-02T06:19:52.224Z,-0.90
2023-02-02T06:21:01.574Z,-0.10
2023-02-02T06:22:03.617Z,-0.48
2023-02-02T06:23:06.243Z,-0.66
2023-02-02T06:24:08.182Z,-0.67
2023-02-02T06:25:10.386Z,-0.23
2023-02-02T06:26:13.902Z,-0.42
2023-02-02T06:27:15.798Z,-1.12
2023-02-02T06:28:17.550Z,-0.31
2023-02-02T06:29:19.430Z,-0.29
2023-02-02T06:30:21.233Z,-0.44
2023-02-02T06:31:24.112Z,-0.33
2023-02-02T06:32:26.052Z,-0.42
2023-02-02T06:33:27.942Z,-0.67
2023-02-02T06:34:29.653Z,-0.35
2023-02-02T06:35:32.016Z,-0.33
2023-02-02T06:36:34.321Z,-1.01
2023-02-02T06:37:36.216Z,-0.91
2023-02-02T06:38:38.657Z,-0.91
2023-02-02T06:39:40.473Z,-0.93
2023-02-02T06:40:42.489Z,-0.36
2023-02-02T06:41:44.907Z,-0.39
2023-02-02T06:42:46.660Z,-0.72
2023-02-02T06:43:49.815Z,-0.32
2023-02-02T06:44:51.591Z,-0.87
2023-02-02T06:45:53.320Z,-0.51
2023-02-02T06:46:55.093Z,-0.35
2023-02-02T06:48:01.320Z,0.04
2023-02-02T06:49:03.158Z,-0.16
2023-02-02T06:50:05.589Z,-0.43
2023-02-02T06:51:07.904Z,-0.10
2023-02-02T06:52:09.799Z,-0.09
2023-02-02T06:53:11.538Z,-0.14
2023-02-02T06:54:13.264Z,-0.23
2023-02-02T06:55:15.631Z,-0.42
2023-02-02T06:56:17.935Z,-0.07
2023-02-02T06:57:19.982Z,-0.10
2023-02-02T06:58:22.267Z,-0.11
2023-02-02T06:59:24.143Z,-0.03
2023-02-02T07:00:29.366Z,-0.11
2023-02-02T07:01:31.333Z,-0.07
2023-02-02T07:02:33.340Z,0.00
2023-02-02T07:03:36.339Z,0.08
2023-02-02T07:04:38.127Z,-0.76
2023-02-02T07:05:40.224Z,0.15
2023-02-02T07:06:41.970Z,0.21
2023-02-02T07:07:43.834Z,0.20
2023-02-02T07:09:01.958Z,-0.60
2023-02-02T07:10:04.829Z,0.19
2023-02-02T07:11:13.005Z,0.32
2023-02-02T07:12:18.287Z,0.20
2023-02-02T07:13:20.008Z,0.05
2023-02-02T07:14:21.811Z,0.19
2023-02-02T07:15:23.955Z,-0.87
2023-02-02T07:16:25.836Z,0.25
2023-02-02T07:17:27.630Z,-0.05
2023-02-02T07:18:29.463Z,0.04
2023-02-02T07:19:31.080Z,0.39
2023-02-02T07:20:33.589Z,0.38
2023-02-02T07:21:35.528Z,-0.04
2023-02-02T07:22:41.064Z,0.32
2023-02-02T07:23:42.786Z,0.35
2023-02-02T07:24:44.538Z,0.59
2023-02-02T07:25:46.424Z,-0.40
2023-02-02T07:26:48.415Z,0.22
2023-02-02T07:27:56.388Z,0.18
2023-02-02T07:28:58.105Z,0.06
2023-02-02T07:29:59.986Z,0.41
2023-02-02T07:31:12.197Z,0.40
2023-02-02T07:32:14.003Z,-0.18
2023-02-02T07:33:15.668Z,0.54
2023-02-02T07:34:17.845Z,0.47
2023-02-02T07:35:19.522Z,0.48
2023-02-02T07:36:23.483Z,0.61
2023-02-02T07:37:25.146Z,0.66
2023-02-02T07:38:26.783Z,0.57
2023-02-02T07:39:28.556Z,0.44
2023-02-02T07:40:30.354Z,0.81
2023-02-02T07:41:34.347Z,0.86
2023-02-02T07:42:36.632Z,-0.01
2023-02-02T07:43:38.461Z,1.18
2023-02-02T07:44:40.133Z,1.38
2023-02-02T07:45:42.161Z,1.44
2023-02-02T07:46:45.148Z,1.80
2023-02-02T07:47:46.846Z,0.97
2023-02-02T07:48:49.106Z,1.78
2023-02-02T07:49:50.962Z,2.42
2023-02-02T07:50:52.671Z,2.45
2023-02-02T07:51:55.143Z,2.68
2023-02-02T07:52:59.376Z,2.59
2023-02-02T07:54:01.505Z,2.63
2023-02-02T07:55:14.487Z,3.20
2023-02-02T07:56:22.469Z,3.46
2023-02-02T07:57:24.969Z,3.19
2023-02-02T07:58:26.665Z,3.55
2023-02-02T07:59:29.209Z,3.57
2023-02-02T08:00:32.213Z,2.95
2023-02-02T08:01:34.008Z,3.37
2023-02-02T08:02:36.086Z,3.57
2023-02-02T08:03:39.116Z,4.09
2023-02-02T08:04:40.814Z,4.01
2023-02-02T08:05:42.538Z,4.70
2023-02-02T08:06:44.257Z,4.68
2023-02-02T08:07:47.527Z,4.72
2023-02-02T08:08:49.940Z,4.82
2023-02-02T08:09:51.837Z,4.98
2023-02-02T08:10:54.334Z,5.17
2023-02-02T08:11:56.124Z,4.86
2023-02-02T08:12:57.812Z,5.09
2023-02-02T08:14:01.311Z,4.95
2023-02-02T08:15:03.192Z,4.76
2023-02-02T08:16:06.120Z,4.50
2023-02-02T08:17:07.878Z,4.20
2023-02-02T08:18:12.780Z,4.25
2023-02-02T08:19:14.597Z,4.45
2023-02-02T08:20:16.841Z,4.02
2023-02-02T08:21:19.554Z,3.25
2023-02-02T08:22:21.433Z,4.58
2023-02-02T08:23:23.277Z,3.31
2023-02-02T08:24:25.078Z,4.56
2023-02-02T08:25:27.432Z,3.82
2023-02-02T08:26:30.896Z,4.78
2023-02-02T08:27:32.714Z,5.00
2023-02-02T08:28:34.627Z,4.81
2023-02-02T08:29:38.563Z,5.33
2023-02-02T08:30:40.458Z,4.75
2023-02-02T08:31:42.302Z,4.89
2023-02-02T08:32:44.212Z,5.19
2023-02-02T08:33:46.519Z,4.62
2023-02-02T08:34:51.461Z,5.47
2023-02-02T08:35:53.239Z,5.49
2023-02-02T08:36:55.015Z,5.86
2023-02-02T08:37:56.720Z,5.51
2023-02-02T08:39:04.104Z,5.44
2023-02-02T08:40:07.018Z,6.38
2023-02-02T08:41:10.967Z,6.37
2023-02-02T08:42:12.922Z,6.62
2023-02-02T08:43:16.531Z,6.72
2023-02-02T08:44:18.444Z,6.10
2023-02-02T08:46:12.627Z,6.11
2023-02-02T08:46:44.088Z,6.84
2023-02-02T08:47:45.964Z,6.20
2023-02-02T08:48:49.022Z,5.89
2023-02-02T08:49:50.827Z,6.76
2023-02-02T08:50:57.236Z,6.64
2023-02-02T08:52:01.613Z,6.24
2023-02-02T08:53:03.471Z,5.81
2023-02-02T08:54:05.420Z,6.18
2023-02-02T08:55:07.456Z,5.52
2023-02-02T08:56:14.934Z,3.50
2023-02-02T08:57:16.739Z,6.68
2023-02-02T08:58:18.525Z,7.15
2023-02-02T08:59:20.368Z,6.86
2023-02-02T09:00:22.486Z,7.06
2023-02-02T09:01:29.468Z,6.50
2023-02-02T09:02:31.413Z,7.03
2023-02-02T09:03:33.603Z,7.10
2023-02-02T09:04:35.516Z,7.33
2023-02-02T09:05:37.420Z,7.47
2023-02-02T09:06:40.796Z,7.25
2023-02-02T09:07:42.795Z,7.05
2023-02-02T09:08:45.558Z,6.56
2023-02-02T09:09:47.388Z,7.39
2023-02-02T09:10:49.240Z,7.28
2023-02-02T09:11:51.180Z,7.41
2023-02-02T09:12:53.046Z,7.60
2023-02-02T09:13:57.544Z,7.68
2023-02-02T09:14:59.511Z,7.57
2023-02-02T09:16:03.074Z,6.14
2023-02-02T09:17:04.981Z,7.18
2023-02-02T09:18:07.060Z,7.03
2023-02-02T09:19:11.158Z,7.34
2023-02-02T09:20:13.429Z,7.79
2023-02-02T09:21:17.079Z,7.80
2023-02-02T09:22:19.028Z,7.88
2023-02-02T09:23:20.913Z,8.49
2023-02-02T09:24:22.811Z,8.54
2023-02-02T09:25:26.175Z,7.95
2023-02-02T09:26:29.906Z,7.45
2023-02-02T09:27:36.809Z,8.17
2023-02-02T09:28:39.869Z,8.44
2023-02-02T09:29:41.880Z,7.68
2023-02-02T09:30:43.741Z,8.47
2023-02-02T09:31:45.790Z,7.98
2023-02-02T09:32:49.800Z,8.20
2023-02-02T09:33:51.766Z,8.62
2023-02-02T09:34:53.727Z,8.99
2023-02-02T09:35:55.784Z,8.48
2023-02-02T09:36:57.609Z,9.25
2023-02-02T09:37:59.480Z,9.61
2023-02-02T09:39:01.610Z,8.94
2023-02-02T09:40:03.916Z,9.01
2023-02-02T09:41:24.670Z,9.55
2023-02-02T09:42:40.975Z,9.45
2023-02-02T09:44:07.575Z,9.63
2023-02-02T09:45:21.846Z,9.92
2023-02-02T09:47:08.219Z,10.16
2023-02-02T09:48:39.088Z,9.85
2023-02-02T09:50:22.774Z,10.02
2023-02-02T09:51:29.584Z,9.37
2023-02-02T09:52:53.752Z,9.54
2023-02-02T09:54:12.140Z,9.50
2023-02-02T09:55:31.795Z,9.48
2023-02-02T09:56:45.463Z,8.95
2023-02-02T09:57:55.583Z,8.30
2023-02-02T09:59:13.741Z,7.75
2023-02-02T10:00:31.952Z,7.87
2023-02-02T10:01:39.392Z,8.61
2023-02-02T10:02:45.260Z,9.23
2023-02-02T10:04:05.721Z,9.52
2023-02-02T10:05:24.697Z,9.51
2023-02-02T10:06:38.961Z,9.50
2023-02-02T10:07:45.355Z,10.28
2023-02-02T10:08:54.070Z,10.05
2023-02-02T10:10:04.191Z,9.87
2023-02-02T10:11:26.248Z,9.73
2023-02-02T10:12:42.017Z,9.28
2023-02-02T10:13:45.882Z,9.31
2023-02-02T10:14:57.156Z,9.45
2023-02-02T10:16:15.573Z,9.33
2023-02-02T10:17:31.220Z,9.31
2023-02-02T10:18:45.291Z,9.28
2023-02-02T10:19:50.713Z,9.15
2023-02-02T10:21:03.912Z,8.93
2023-02-02T10:22:14.892Z,9.33
2023-02-02T10:23:24.139Z,9.30
2023-02-02T10:24:29.444Z,9.06
2023-02-02T10:25:35.528Z,7.21
2023-02-02T10:26:46.476Z,9.26
2023-02-02T10:28:11.961Z,8.07
2023-02-02T10:29:22.719Z,8.91
2023-02-02T10:30:37.509Z,9.44
2023-02-02T10:31:59.461Z,8.22
2023-02-02T10:33:41.705Z,9.01
2023-02-02T10:35:13.470Z,9.10
2023-02-02T10:36:22.894Z,9.02
2023-02-02T10:38:03.130Z,8.56
2023-02-02T10:39:26.882Z,9.18
2023-02-02T10:40:47.802Z,8.98
2023-02-02T10:42:11.864Z,9.18
2023-02-02T10:43:37.859Z,9.21
2023-02-02T10:45:11.774Z,9.01
2023-02-02T10:46:24.413Z,9.04
2023-02-02T10:47:30.594Z,8.94
2023-02-02T10:48:34.957Z,9.08
2023-02-02T10:49:41.373Z,8.69
2023-02-02T10:50:47.530Z,8.74
2023-02-02T10:51:57.949Z,8.52
2023-02-02T10:53:10.794Z,7.95
2023-02-02T10:55:03.983Z,8.15
2023-02-02T10:56:11.235Z,8.17
2023-02-02T10:57:19.388Z,6.94
2023-02-02T10:58:48.595Z,8.00
2023-02-02T11:00:23.903Z,7.96
2023-02-02T11:01:25.786Z,7.95
2023-02-02T11:02:27.794Z,7.77
2023-02-02T11:03:33.529Z,7.82
2023-02-02T11:04:36.207Z,7.60
2023-02-02T11:05:38.500Z,7.89
2023-02-02T11:06:40.697Z,7.62
2023-02-02T11:07:42.602Z,7.80
2023-02-02T11:08:48.530Z,7.84
2023-02-02T11:09:50.499Z,7.58
2023-02-02T11:10:56.130Z,7.48
2023-02-02T11:12:06.894Z,7.79
2023-02-02T11:13:15.214Z,7.68
2023-02-02T11:14:44.977Z,7.74
2023-02-02T11:15:47.930Z,7.92
2023-02-02T11:17:02.586Z,7.76
2023-02-02T11:18:33.855Z,7.54
2023-02-02T11:19:36.019Z,7.90
2023-02-02T11:20:38.048Z,7.91
2023-02-02T11:21:40.049Z,7.78
2023-02-02T11:22:41.913Z,7.13
2023-02-02T11:23:57.541Z,7.72
2023-02-02T11:25:21.334Z,7.83
2023-02-02T11:26:25.491Z,7.74
2023-02-02T11:27:42.445Z,7.61
2023-02-02T11:28:44.389Z,7.69
2023-02-02T11:29:54.815Z,8.02
2023-02-02T11:30:57.525Z,7.58
2023-02-02T11:32:17.669Z,7.94
2023-02-02T11:33:39.906Z,7.39
2023-02-02T11:34:41.827Z,7.54
2023-02-02T11:35:55.170Z,7.56
2023-02-02T11:37:14.699Z,7.68
2023-02-02T11:38:16.775Z,7.36
2023-02-02T11:39:22.023Z,7.85
2023-02-02T11:40:24.293Z,6.85
2023-02-02T11:41:31.397Z,6.43
2023-02-02T11:42:34.230Z,7.67
2023-02-02T11:43:48.894Z,7.67
2023-02-02T11:44:57.649Z,7.60
2023-02-02T11:46:07.697Z,7.07
2023-02-02T11:47:20.443Z,7.49
2023-02-02T11:48:26.169Z,7.10
2023-02-02T11:49:28.630Z,7.56
2023-02-02T11:50:30.518Z,7.36
2023-02-02T11:51:32.628Z,7.72
2023-02-02T11:52:34.501Z,7.37
2023-02-02T11:53:44.666Z,7.53
2023-02-02T11:54:50.806Z,7.01
2023-02-02T11:55:54.159Z,7.88
2023-02-02T11:56:59.643Z,8.04
2023-02-02T11:58:44.981Z,7.97
2023-02-02T11:59:48.033Z,7.62
2023-02-02T12:00:52.260Z,7.78
2023-02-02T12:02:13.332Z,7.66
2023-02-02T12:03:38.513Z,7.66
2023-02-02T12:04:40.957Z,7.67
2023-02-02T12:05:42.770Z,7.17
2023-02-02T12:06:44.597Z,7.68
2023-02-02T12:07:48.024Z,6.79
2023-02-02T12:08:50.374Z,7.60
2023-02-02T12:09:53.047Z,6.51
2023-02-02T12:11:01.824Z,7.05
2023-02-02T12:12:30.765Z,6.43
2023-02-02T12:14:16.336Z,8.55
2023-02-02T12:15:51.755Z,9.42
2023-02-02T12:16:56.397Z,9.82
2023-02-02T12:18:47.365Z,9.42
2023-02-02T12:20:04.941Z,9.82
2023-02-02T12:21:11.814Z,9.84
2023-02-02T12:22:31.557Z,9.29
2023-02-02T12:24:09.012Z,8.75
2023-02-02T12:25:38.091Z,8.50
2023-02-02T12:26:45.168Z,8.37
2023-02-02T12:28:09.998Z,7.35
2023-02-02T12:29:33.747Z,8.23
2023-02-02T12:31:00.072Z,8.15
2023-02-02T12:32:20.803Z,8.13
2023-02-02T12:33:41.247Z,7.91
2023-02-02T12:35:17.032Z,7.75
2023-02-02T12:36:54.375Z,7.96
2023-02-02T12:38:14.701Z,7.05
2023-02-02T12:39:23.756Z,6.31
2023-02-02T12:40:48.602Z,7.60
2023-02-02T12:41:56.183Z,6.54
2023-02-02T12:43:25.439Z,7.14
2023-02-02T12:44:43.419Z,7.09
2023-02-02T12:46:12.472Z,6.41
2023-02-02T12:47:23.391Z,7.10
2023-02-02T12:48:50.621Z,7.17
2023-02-02T12:50:23.191Z,7.55
2023-02-02T12:51:58.502Z,7.94
2023-02-02T12:53:22.233Z,8.01
2023-02-02T12:54:46.723Z,8.10
2023-02-02T12:56:18.850Z,8.35
2023-02-02T12:57:48.849Z,8.77
2023-02-02T12:59:06.232Z,9.01
2023-02-02T13:00:13.654Z,9.21
2023-02-02T13:01:27.663Z,9.15
2023-02-02T13:02:44.695Z,9.09
2023-02-02T13:03:55.154Z,8.71
2023-02-02T13:05:06.224Z,8.40
2023-02-02T13:06:33.125Z,7.67
2023-02-02T13:07:41.558Z,8.02
2023-02-02T13:08:53.490Z,8.13
2023-02-02T13:10:16.461Z,7.77
2023-02-02T13:11:53.206Z,7.88
2023-02-02T13:13:02.809Z,7.61
2023-02-02T13:14:54.150Z,7.70
2023-02-02T13:16:06.253Z,7.57
2023-02-02T13:17:29.446Z,7.46
2023-02-02T13:18:48.508Z,7.32
2023-02-02T13:19:54.066Z,7.46
2023-02-02T13:21:01.983Z,7.46
2023-02-02T13:22:06.943Z,6.74
2023-02-02T13:23:23.568Z,7.55
2023-02-02T13:24:31.793Z,7.50
2023-02-02T13:25:41.851Z,6.28
2023-02-02T13:26:47.263Z,7.46
2023-02-02T13:27:49.901Z,7.46
2023-02-02T13:29:02.708Z,6.68
2023-02-02T13:30:25.924Z,7.59
2023-02-02T13:31:35.800Z,7.51
2023-02-02T13:32:44.886Z,6.93
2023-02-02T13:33:53.625Z,7.58
2023-02-02T13:35:01.464Z,7.56
2023-02-02T13:36:18.820Z,7.68
2023-02-02T13:37:25.628Z,6.84
2023-02-02T13:38:31.369Z,7.68
2023-02-02T13:39:45.181Z,6.87
2023-02-02T13:40:48.796Z,7.75
2023-02-02T13:41:52.039Z,7.75
2023-02-02T13:43:16.788Z,7.73
2023-02-02T13:44:30.339Z,7.49
2023-02-02T13:45:32.033Z,7.65
2023-02-02T13:46:57.706Z,7.56
2023-02-02T13:48:37.174Z,7.37
2023-02-02T13:49:49.505Z,7.33
2023-02-02T13:51:14.997Z,7.41
2023-02-02T13:52:42.748Z,6.49
2023-02-02T13:54:13.444Z,7.42
2023-02-02T13:55:39.831Z,7.36
2023-02-02T13:56:50.651Z,6.85
2023-02-02T13:59:54.048Z,7.05
2023-02-02T14:01:07.349Z,6.94
2023-02-02T14:02:46.585Z,6.53
2023-02-02T14:03:56.739Z,6.96
2023-02-02T14:05:02.017Z,6.61
2023-02-02T14:06:24.429Z,6.68
2023-02-02T14:07:46.723Z,6.69
2023-02-02T14:08:59.925Z,6.80
2023-02-02T14:10:01.898Z,6.84
2023-02-02T14:11:07.949Z,6.73
2023-02-02T14:12:11.729Z,6.03
2023-02-02T14:13:13.444Z,6.84
2023-02-02T14:14:21.298Z,6.46
2023-02-02T14:15:44.560Z,6.40
2023-02-02T14:16:49.675Z,6.51
2023-02-02T14:17:53.781Z,6.39
2023-02-02T14:18:56.366Z,6.16
2023-02-02T14:19:59.937Z,6.37
2023-02-02T14:21:01.798Z,5.13
2023-02-02T14:22:05.365Z,6.19
2023-02-02T14:23:44.564Z,6.50
2023-02-02T14:24:51.901Z,6.34
2023-02-02T14:26:09.278Z,6.35
2023-02-02T14:27:11.257Z,5.47
2023-02-02T14:28:33.800Z,5.29
2023-02-02T14:29:46.572Z,6.31
2023-02-02T14:31:27.226Z,6.11
2023-02-02T14:32:32.765Z,5.81
2023-02-02T14:33:40.911Z,5.60
2023-02-02T14:34:44.643Z,5.21
2023-02-02T14:35:46.496Z,4.87
2023-02-02T14:37:22.412Z,4.56
2023-02-02T14:38:48.215Z,4.46
2023-02-02T14:40:06.795Z,4.37
2023-02-02T14:41:43.940Z,4.06
2023-02-02T14:43:07.092Z,3.97
2023-02-02T14:44:08.888Z,3.81
2023-02-02T14:45:10.626Z,3.78
2023-02-02T14:46:15.355Z,2.57
2023-02-02T14:47:45.047Z,3.70
2023-02-02T14:49:06.003Z,3.52